Terminal Aerodrome Forecast
Issued by NWS Louisville, KY

Home | Current Version | Previous Version | Text Only | Print | Product List | Glossary On
Versions: 1 2 3 4 5 6 7 8 9 10 11 12 13 14
235
FTUS43 KLMK 202322
TAFSDF
TAF
KSDF 202322Z 2100/2206 18003KT P6SM FEW200
     FM211400 21006KT P6SM FEW060 FEW200=

USA.gov is the U.S. government's official web portal to all federal, state and local government web resources and services.